sensor_id;sensor_type;location;lat;lon;timestamp;P1;durP1;ratioP1;P2;durP2;ratioP2
14619;SDS011;32125;48.518;9.050;2023-03-01T00:01:16;25.97;;;17.70;;
14619;SDS011;32125;48.518;9.050;2023-03-01T00:03:44;29.03;;;19.30;;
14619;SDS011;32125;48.518;9.050;2023-03-01T00:06:10;28.00;;;17.37;;
14619;SDS011;32125;48.518;9.050;2023-03-01T00:08:36;27.50;;;18.00;;
14619;SDS011;32125;48.518;9.050;2023-03-01T00:11:04;28.50;;;17.90;;
14619;SDS011;32125;48.518;9.050;2023-03-01T00:13:42;26.03;;;17.50;;
14619;SDS011;32125;48.518;9.050;2023-03-01T00:16:10;28.70;;;17.77;;
14619;SDS011;32125;48.518;9.050;2023-03-01T00:18:38;28.87;;;18.63;;
14619;SDS011;32125;48.518;9.050;2023-03-01T00:21:06;29.20;;;18.37;;
14619;SDS011;32125;48.518;9.050;2023-03-01T00:23:36;29.03;;;18.93;;
14619;SDS011;32125;48.518;9.050;2023-03-01T00:26:08;27.87;;;18.57;;
14619;SDS011;32125;48.518;9.050;2023-03-01T00:28:37;28.03;;;18.50;;
14619;SDS011;32125;48.518;9.050;2023-03-01T00:31:04;26.47;;;18.67;;
14619;SDS011;32125;48.518;9.050;2023-03-01T00:33:38;27.03;;;18.30;;
14619;SDS011;32125;48.518;9.050;2023-03-01T00:36:04;26.63;;;18.00;;
14619;SDS011;32125;48.518;9.050;2023-03-01T00:38:30;27.93;;;18.33;;
14619;SDS011;32125;48.518;9.050;2023-03-01T00:41:03;25.77;;;18.30;;
14619;SDS011;32125;48.518;9.050;2023-03-01T00:43:33;29.43;;;18.60;;
14619;SDS011;32125;48.518;9.050;2023-03-01T00:46:07;29.90;;;18.87;;
14619;SDS011;32125;48.518;9.050;2023-03-01T00:48:35;28.77;;;19.00;;
14619;SDS011;32125;48.518;9.050;2023-03-01T00:51:12;27.93;;;18.33;;
14619;SDS011;32125;48.518;9.050;2023-03-01T00:53:43;28.20;;;19.17;;
14619;SDS011;32125;48.518;9.050;2023-03-01T00:56:10;26.10;;;18.13;;
14619;SDS011;32125;48.518;9.050;2023-03-01T00:58:39;27.13;;;18.30;;
14619;SDS011;32125;48.518;9.050;2023-03-01T01:01:10;31.83;;;19.40;;
14619;SDS011;32125;48.518;9.050;2023-03-01T01:03:47;27.43;;;19.70;;
14619;SDS011;32125;48.518;9.050;2023-03-01T01:06:18;31.57;;;20.17;;
14619;SDS011;32125;48.518;9.050;2023-03-01T01:08:48;29.23;;;19.70;;
14619;SDS011;32125;48.518;9.050;2023-03-01T01:11:15;29.90;;;19.63;;
14619;SDS011;32125;48.518;9.050;2023-03-01T01:13:41;29.67;;;19.07;;
14619;SDS011;32125;48.518;9.050;2023-03-01T01:16:08;29.57;;;19.17;;
14619;SDS011;32125;48.518;9.050;2023-03-01T01:18:35;31.40;;;19.43;;
14619;SDS011;32125;48.518;9.050;2023-03-01T01:21:07;29.90;;;19.87;;
14619;SDS011;32125;48.518;9.050;2023-03-01T01:23:36;31.93;;;19.60;;
14619;SDS011;32125;48.518;9.050;2023-03-01T01:26:16;31.47;;;20.60;;
14619;SDS011;32125;48.518;9.050;2023-03-01T01:28:43;33.00;;;19.93;;
14619;SDS011;32125;48.518;9.050;2023-03-01T01:31:10;32.93;;;20.93;;
14619;SDS011;32125;48.518;9.050;2023-03-01T01:33:36;33.33;;;20.67;;
14619;SDS011;32125;48.518;9.050;2023-03-01T01:36:05;32.17;;;19.83;;
14619;SDS011;32125;48.518;9.050;2023-03-01T01:38:37;31.40;;;19.80;;
14619;SDS011;32125;48.518;9.050;2023-03-01T01:41:03;31.73;;;19.93;;
14619;SDS011;32125;48.518;9.050;2023-03-01T01:43:34;33.53;;;20.67;;
14619;SDS011;32125;48.518;9.050;2023-03-01T01:49:02;30.77;;;20.53;;
14619;SDS011;32125;48.518;9.050;2023-03-01T01:51:35;30.67;;;20.10;;
14619;SDS011;32125;48.518;9.050;2023-03-01T01:54:06;34.53;;;19.90;;
14619;SDS011;32125;48.518;9.050;2023-03-01T01:56:34;31.73;;;19.90;;
14619;SDS011;32125;48.518;9.050;2023-03-01T01:59:05;29.33;;;19.60;;
14619;SDS011;32125;48.518;9.050;2023-03-01T02:01:33;30.77;;;20.13;;
14619;SDS011;32125;48.518;9.050;2023-03-01T02:03:59;31.37;;;20.40;;
14619;SDS011;32125;48.518;9.050;2023-03-01T02:06:29;30.90;;;19.70;;
14619;SDS011;32125;48.518;9.050;2023-03-01T02:09:00;30.93;;;19.50;;
14619;SDS011;32125;48.518;9.050;2023-03-01T02:11:35;29.67;;;19.43;;
14619;SDS011;32125;48.518;9.050;2023-03-01T02:14:02;33.33;;;19.57;;
14619;SDS011;32125;48.518;9.050;2023-03-01T02:16:28;30.47;;;19.83;;
14619;SDS011;32125;48.518;9.050;2023-03-01T02:18:56;32.50;;;19.57;;
14619;SDS011;32125;48.518;9.050;2023-03-01T02:24:13;29.60;;;19.23;;
14619;SDS011;32125;48.518;9.050;2023-03-01T02:26:41;28.43;;;19.27;;
14619;SDS011;32125;48.518;9.050;2023-03-01T02:29:12;27.80;;;18.67;;
14619;SDS011;32125;48.518;9.050;2023-03-01T02:31:38;28.43;;;18.83;;
14619;SDS011;32125;48.518;9.050;2023-03-01T02:34:08;27.40;;;17.43;;
14619;SDS011;32125;48.518;9.050;2023-03-01T02:36:38;27.57;;;19.03;;
14619;SDS011;32125;48.518;9.050;2023-03-01T02:39:17;28.10;;;18.17;;
14619;SDS011;32125;48.518;9.050;2023-03-01T02:41:53;26.47;;;17.77;;
14619;SDS011;32125;48.518;9.050;2023-03-01T02:44:23;25.07;;;17.47;;
14619;SDS011;32125;48.518;9.050;2023-03-01T02:46:51;28.00;;;17.77;;
14619;SDS011;32125;48.518;9.050;2023-03-01T02:49:21;26.97;;;18.23;;
14619;SDS011;32125;48.518;9.050;2023-03-01T02:52:04;28.47;;;18.23;;
14619;SDS011;32125;48.518;9.050;2023-03-01T02:54:51;28.27;;;18.53;;
14619;SDS011;32125;48.518;9.050;2023-03-01T02:57:22;28.03;;;17.90;;
14619;SDS011;32125;48.518;9.050;2023-03-01T02:59:50;27.63;;;17.97;;
14619;SDS011;32125;48.518;9.050;2023-03-01T03:02:25;27.77;;;18.13;;
14619;SDS011;32125;48.518;9.050;2023-03-01T03:05:11;27.20;;;17.90;;
14619;SDS011;32125;48.518;9.050;2023-03-01T03:07:40;25.97;;;17.73;;
14619;SDS011;32125;48.518;9.050;2023-03-01T03:10:12;27.70;;;17.50;;
14619;SDS011;32125;48.518;9.050;2023-03-01T03:12:47;26.93;;;17.67;;
14619;SDS011;32125;48.518;9.050;2023-03-01T03:15:17;27.80;;;17.87;;
14619;SDS011;32125;48.518;9.050;2023-03-01T03:17:43;26.40;;;17.47;;
14619;SDS011;32125;48.518;9.050;2023-03-01T03:20:13;25.20;;;17.77;;
14619;SDS011;32125;48.518;9.050;2023-03-01T03:22:43;26.90;;;17.73;;
14619;SDS011;32125;48.518;9.050;2023-03-01T03:25:09;27.17;;;17.33;;
14619;SDS011;32125;48.518;9.050;2023-03-01T03:27:37;25.93;;;17.10;;
14619;SDS011;32125;48.518;9.050;2023-03-01T03:30:04;25.70;;;16.73;;
14619;SDS011;32125;48.518;9.050;2023-03-01T03:32:35;25.83;;;17.50;;
14619;SDS011;32125;48.518;9.050;2023-03-01T03:35:04;27.23;;;17.17;;
14619;SDS011;32125;48.518;9.050;2023-03-01T03:37:39;25.67;;;17.80;;
14619;SDS011;32125;48.518;9.050;2023-03-01T03:40:24;27.53;;;17.83;;
14619;SDS011;32125;48.518;9.050;2023-03-01T03:42:51;24.40;;;16.73;;
14619;SDS011;32125;48.518;9.050;2023-03-01T03:45:17;26.77;;;17.23;;
14619;SDS011;32125;48.518;9.050;2023-03-01T03:47:43;26.27;;;17.27;;
14619;SDS011;32125;48.518;9.050;2023-03-01T03:50:10;27.67;;;17.30;;
14619;SDS011;32125;48.518;9.050;2023-03-01T03:52:43;23.73;;;16.47;;
14619;SDS011;32125;48.518;9.050;2023-03-01T03:55:12;25.43;;;16.50;;
14619;SDS011;32125;48.518;9.050;2023-03-01T03:57:39;24.87;;;17.30;;
14619;SDS011;32125;48.518;9.050;2023-03-01T04:00:10;26.47;;;17.57;;
14619;SDS011;32125;48.518;9.050;2023-03-01T04:02:42;26.60;;;17.63;;
14619;SDS011;32125;48.518;9.050;2023-03-01T04:05:09;25.60;;;17.17;;
14619;SDS011;32125;48.518;9.050;2023-03-01T04:07:37;27.40;;;18.40;;
14619;SDS011;32125;48.518;9.050;2023-03-01T04:10:04;26.17;;;17.37;;
14619;SDS011;32125;48.518;9.050;2023-03-01T04:12:32;26.57;;;17.73;;
14619;SDS011;32125;48.518;9.050;2023-03-01T04:15:02;27.13;;;17.60;;
14619;SDS011;32125;48.518;9.050;2023-03-01T04:17:37;26.07;;;17.50;;
14619;SDS011;32125;48.518;9.050;2023-03-01T04:20:05;26.03;;;18.20;;
14619;SDS011;32125;48.518;9.050;2023-03-01T04:22:31;26.83;;;17.73;;
14619;SDS011;32125;48.518;9.050;2023-03-01T04:24:58;23.97;;;17.60;;
14619;SDS011;32125;48.518;9.050;2023-03-01T04:27:31;25.67;;;17.43;;
14619;SDS011;32125;48.518;9.050;2023-03-01T04:30:01;27.77;;;18.27;;
14619;SDS011;32125;48.518;9.050;2023-03-01T04:32:28;26.10;;;18.13;;
14619;SDS011;32125;48.518;9.050;2023-03-01T04:34:55;26.23;;;18.30;;
14619;SDS011;32125;48.518;9.050;2023-03-01T04:37:21;24.00;;;17.10;;
14619;SDS011;32125;48.518;9.050;2023-03-01T04:39:48;24.40;;;17.93;;
14619;SDS011;32125;48.518;9.050;2023-03-01T04:42:15;27.27;;;17.93;;
14619;SDS011;32125;48.518;9.050;2023-03-01T04:44:41;26.50;;;17.77;;
14619;SDS011;32125;48.518;9.050;2023-03-01T04:47:08;26.30;;;18.17;;
14619;SDS011;32125;48.518;9.050;2023-03-01T04:49:34;29.43;;;19.50;;
14619;SDS011;32125;48.518;9.050;2023-03-01T04:52:00;27.20;;;18.27;;
14619;SDS011;32125;48.518;9.050;2023-03-01T04:54:30;27.63;;;17.80;;
14619;SDS011;32125;48.518;9.050;2023-03-01T04:56:59;26.23;;;18.03;;
14619;SDS011;32125;48.518;9.050;2023-03-01T04:59:25;26.40;;;18.03;;
14619;SDS011;32125;48.518;9.050;2023-03-01T05:01:54;26.73;;;18.33;;
14619;SDS011;32125;48.518;9.050;2023-03-01T05:04:23;26.50;;;18.53;;
14619;SDS011;32125;48.518;9.050;2023-03-01T05:06:49;28.97;;;17.27;;
14619;SDS011;32125;48.518;9.050;2023-03-01T05:09:15;26.37;;;17.90;;
14619;SDS011;32125;48.518;9.050;2023-03-01T05:11:41;29.13;;;18.13;;
14619;SDS011;32125;48.518;9.050;2023-03-01T05:14:08;27.83;;;18.57;;
14619;SDS011;32125;48.518;9.050;2023-03-01T05:16:35;28.20;;;17.67;;
14619;SDS011;32125;48.518;9.050;2023-03-01T05:19:02;26.23;;;17.87;;
14619;SDS011;32125;48.518;9.050;2023-03-01T05:21:40;26.60;;;17.80;;
14619;SDS011;32125;48.518;9.050;2023-03-01T05:24:26;23.80;;;17.07;;
14619;SDS011;32125;48.518;9.050;2023-03-01T05:26:52;27.83;;;18.00;;
14619;SDS011;32125;48.518;9.050;2023-03-01T05:29:19;28.47;;;18.03;;
14619;SDS011;32125;48.518;9.050;2023-03-01T05:31:49;27.07;;;18.03;;
14619;SDS011;32125;48.518;9.050;2023-03-01T05:34:15;24.70;;;17.80;;
14619;SDS011;32125;48.518;9.050;2023-03-01T05:36:41;30.27;;;19.07;;
14619;SDS011;32125;48.518;9.050;2023-03-01T05:39:10;26.73;;;18.60;;
14619;SDS011;32125;48.518;9.050;2023-03-01T05:41:36;26.80;;;17.90;;
14619;SDS011;32125;48.518;9.050;2023-03-01T05:44:01;26.07;;;17.57;;
14619;SDS011;32125;48.518;9.050;2023-03-01T05:46:29;25.53;;;17.37;;
14619;SDS011;32125;48.518;9.050;2023-03-01T05:48:55;26.90;;;18.13;;
14619;SDS011;32125;48.518;9.050;2023-03-01T05:51:23;25.43;;;18.27;;
14619;SDS011;32125;48.518;9.050;2023-03-01T05:53:49;28.10;;;17.40;;
14619;SDS011;32125;48.518;9.050;2023-03-01T05:56:15;29.53;;;18.40;;
14619;SDS011;32125;48.518;9.050;2023-03-01T05:58:44;30.73;;;19.07;;
14619;SDS011;32125;48.518;9.050;2023-03-01T06:01:13;27.30;;;17.43;;
14619;SDS011;32125;48.518;9.050;2023-03-01T06:03:39;26.93;;;17.93;;
14619;SDS011;32125;48.518;9.050;2023-03-01T06:06:05;24.53;;;17.50;;
14619;SDS011;32125;48.518;9.050;2023-03-01T06:08:33;29.93;;;18.23;;
14619;SDS011;32125;48.518;9.050;2023-03-01T06:10:59;26.97;;;17.60;;
14619;SDS011;32125;48.518;9.050;2023-03-01T06:13:25;31.50;;;18.23;;
14619;SDS011;32125;48.518;9.050;2023-03-01T06:15:51;26.90;;;18.00;;
14619;SDS011;32125;48.518;9.050;2023-03-01T06:18:17;28.20;;;18.17;;
14619;SDS011;32125;48.518;9.050;2023-03-01T06:20:45;28.93;;;18.50;;
14619;SDS011;32125;48.518;9.050;2023-03-01T06:23:17;32.30;;;18.20;;
14619;SDS011;32125;48.518;9.050;2023-03-01T06:25:43;27.17;;;17.87;;
14619;SDS011;32125;48.518;9.050;2023-03-01T06:28:09;25.57;;;17.83;;
14619;SDS011;32125;48.518;9.050;2023-03-01T06:30:37;26.90;;;17.93;;
14619;SDS011;32125;48.518;9.050;2023-03-01T06:33:03;25.83;;;17.93;;
14619;SDS011;32125;48.518;9.050;2023-03-01T06:35:29;29.07;;;17.97;;
14619;SDS011;32125;48.518;9.050;2023-03-01T06:37:56;28.47;;;18.67;;
14619;SDS011;32125;48.518;9.050;2023-03-01T06:40:23;25.13;;;17.00;;
14619;SDS011;32125;48.518;9.050;2023-03-01T06:42:51;28.83;;;18.60;;
14619;SDS011;32125;48.518;9.050;2023-03-01T06:45:18;30.67;;;17.03;;
14619;SDS011;32125;48.518;9.050;2023-03-01T06:47:47;28.30;;;17.40;;
14619;SDS011;32125;48.518;9.050;2023-03-01T06:50:13;25.60;;;17.27;;
14619;SDS011;32125;48.518;9.050;2023-03-01T06:52:40;26.53;;;17.63;;
14619;SDS011;32125;48.518;9.050;2023-03-01T06:55:06;29.27;;;18.60;;
14619;SDS011;32125;48.518;9.050;2023-03-01T06:57:34;28.83;;;18.03;;
14619;SDS011;32125;48.518;9.050;2023-03-01T07:00:00;27.27;;;17.97;;
14619;SDS011;32125;48.518;9.050;2023-03-01T07:02:28;26.37;;;18.17;;
14619;SDS011;32125;48.518;9.050;2023-03-01T07:04:54;26.77;;;18.20;;
14619;SDS011;32125;48.518;9.050;2023-03-01T07:07:22;24.53;;;17.50;;
14619;SDS011;32125;48.518;9.050;2023-03-01T07:09:51;24.87;;;17.73;;
14619;SDS011;32125;48.518;9.050;2023-03-01T07:12:18;27.10;;;18.77;;
14619;SDS011;32125;48.518;9.050;2023-03-01T07:14:46;24.33;;;17.23;;
14619;SDS011;32125;48.518;9.050;2023-03-01T07:17:12;25.23;;;17.20;;
14619;SDS011;32125;48.518;9.050;2023-03-01T07:19:40;22.90;;;16.43;;
14619;SDS011;32125;48.518;9.050;2023-03-01T07:22:06;23.63;;;16.50;;
14619;SDS011;32125;48.518;9.050;2023-03-01T07:24:36;25.43;;;17.00;;
14619;SDS011;32125;48.518;9.050;2023-03-01T07:27:02;22.87;;;17.00;;
14619;SDS011;32125;48.518;9.050;2023-03-01T07:29:28;22.43;;;16.00;;
14619;SDS011;32125;48.518;9.050;2023-03-01T07:31:54;21.53;;;16.80;;
14619;SDS011;32125;48.518;9.050;2023-03-01T07:34:23;24.53;;;16.43;;
14619;SDS011;32125;48.518;9.050;2023-03-01T07:36:49;22.03;;;15.23;;
14619;SDS011;32125;48.518;9.050;2023-03-01T07:39:15;21.97;;;16.00;;
14619;SDS011;32125;48.518;9.050;2023-03-01T07:41:41;20.53;;;15.03;;
14619;SDS011;32125;48.518;9.050;2023-03-01T07:44:09;21.33;;;15.77;;
14619;SDS011;32125;48.518;9.050;2023-03-01T07:46:36;22.33;;;15.73;;
14619;SDS011;32125;48.518;9.050;2023-03-01T07:49:02;20.93;;;15.43;;
14619;SDS011;32125;48.518;9.050;2023-03-01T07:51:29;20.57;;;15.87;;
14619;SDS011;32125;48.518;9.050;2023-03-01T07:53:57;22.00;;;16.07;;
14619;SDS011;32125;48.518;9.050;2023-03-01T07:56:23;21.93;;;15.27;;
14619;SDS011;32125;48.518;9.050;2023-03-01T07:58:50;19.97;;;15.17;;
14619;SDS011;32125;48.518;9.050;2023-03-01T08:01:17;19.67;;;15.50;;
14619;SDS011;32125;48.518;9.050;2023-03-01T08:03:43;18.43;;;14.67;;
14619;SDS011;32125;48.518;9.050;2023-03-01T08:06:10;19.13;;;15.30;;
14619;SDS011;32125;48.518;9.050;2023-03-01T08:08:39;19.17;;;15.13;;
14619;SDS011;32125;48.518;9.050;2023-03-01T08:11:06;19.10;;;14.90;;
14619;SDS011;32125;48.518;9.050;2023-03-01T08:13:32;18.13;;;15.10;;
14619;SDS011;32125;48.518;9.050;2023-03-01T08:16:02;18.07;;;15.33;;
14619;SDS011;32125;48.518;9.050;2023-03-01T08:18:29;16.93;;;14.23;;
14619;SDS011;32125;48.518;9.050;2023-03-01T08:20:55;18.93;;;14.90;;
14619;SDS011;32125;48.518;9.050;2023-03-01T08:23:25;19.37;;;16.23;;
14619;SDS011;32125;48.518;9.050;2023-03-01T08:25:51;18.77;;;15.30;;
14619;SDS011;32125;48.518;9.050;2023-03-01T08:28:18;19.07;;;15.47;;
14619;SDS011;32125;48.518;9.050;2023-03-01T08:30:44;19.63;;;15.93;;
14619;SDS011;32125;48.518;9.050;2023-03-01T08:33:10;20.53;;;16.27;;
14619;SDS011;32125;48.518;9.050;2023-03-01T08:35:36;18.50;;;14.87;;
14619;SDS011;32125;48.518;9.050;2023-03-01T08:38:04;18.47;;;16.00;;
14619;SDS011;32125;48.518;9.050;2023-03-01T08:40:30;18.40;;;15.53;;
14619;SDS011;32125;48.518;9.050;2023-03-01T08:42:57;19.00;;;15.60;;
14619;SDS011;32125;48.518;9.050;2023-03-01T08:45:23;19.80;;;16.30;;
14619;SDS011;32125;48.518;9.050;2023-03-01T08:47:51;19.67;;;16.33;;
14619;SDS011;32125;48.518;9.050;2023-03-01T08:50:18;19.67;;;16.23;;
14619;SDS011;32125;48.518;9.050;2023-03-01T08:52:44;19.80;;;15.83;;
14619;SDS011;32125;48.518;9.050;2023-03-01T08:55:12;20.93;;;15.67;;
14619;SDS011;32125;48.518;9.050;2023-03-01T08:57:44;19.97;;;16.43;;
14619;SDS011;32125;48.518;9.050;2023-03-01T09:00:15;24.03;;;16.43;;
14619;SDS011;32125;48.518;9.050;2023-03-01T09:02:42;18.83;;;15.60;;
14619;SDS011;32125;48.518;9.050;2023-03-01T09:05:08;19.80;;;16.27;;
14619;SDS011;32125;48.518;9.050;2023-03-01T09:07:34;18.83;;;15.57;;
14619;SDS011;32125;48.518;9.050;2023-03-01T09:10:00;19.97;;;16.37;;
14619;SDS011;32125;48.518;9.050;2023-03-01T09:12:26;20.53;;;16.20;;
14619;SDS011;32125;48.518;9.050;2023-03-01T09:14:54;20.20;;;15.70;;
14619;SDS011;32125;48.518;9.050;2023-03-01T09:17:20;18.07;;;15.67;;
14619;SDS011;32125;48.518;9.050;2023-03-01T09:19:49;18.17;;;14.93;;
14619;SDS011;32125;48.518;9.050;2023-03-01T09:22:15;16.97;;;14.90;;
14619;SDS011;32125;48.518;9.050;2023-03-01T09:24:43;17.77;;;15.60;;
14619;SDS011;32125;48.518;9.050;2023-03-01T09:27:09;17.80;;;15.90;;
14619;SDS011;32125;48.518;9.050;2023-03-01T09:29:39;17.93;;;16.03;;
14619;SDS011;32125;48.518;9.050;2023-03-01T09:32:07;17.63;;;15.43;;
14619;SDS011;32125;48.518;9.050;2023-03-01T09:34:33;19.13;;;16.33;;
14619;SDS011;32125;48.518;9.050;2023-03-01T09:37:19;18.77;;;16.10;;
14619;SDS011;32125;48.518;9.050;2023-03-01T09:39:48;18.10;;;15.10;;
14619;SDS011;32125;48.518;9.050;2023-03-01T09:42:16;18.73;;;16.03;;
14619;SDS011;32125;48.518;9.050;2023-03-01T09:47:19;20.57;;;16.50;;
14619;SDS011;32125;48.518;9.050;2023-03-01T09:50:04;17.67;;;15.77;;
14619;SDS011;32125;48.518;9.050;2023-03-01T09:55:04;17.00;;;15.23;;
14619;SDS011;32125;48.518;9.050;2023-03-01T09:57:53;19.35;;;16.10;;
14619;SDS011;32125;48.518;9.050;2023-03-01T10:00:39;19.05;;;16.02;;
14619;SDS011;32125;48.518;9.050;2023-03-01T10:08:34;17.73;;;15.82;;
14619;SDS011;32125;48.518;9.050;2023-03-01T10:13:48;16.50;;;14.73;;
14619;SDS011;32125;48.518;9.050;2023-03-01T10:16:28;18.42;;;16.50;;
14619;SDS011;32125;48.518;9.050;2023-03-01T10:19:00;16.85;;;15.15;;
14619;SDS011;32125;48.518;9.050;2023-03-01T10:21:30;18.58;;;15.80;;
14619;SDS011;32125;48.518;9.050;2023-03-01T10:24:10;17.73;;;15.88;;
14619;SDS011;32125;48.518;9.050;2023-03-01T10:29:10;17.40;;;15.00;;
14619;SDS011;32125;48.518;9.050;2023-03-01T10:34:09;18.00;;;15.65;;
14619;SDS011;32125;48.518;9.050;2023-03-01T10:36:36;18.40;;;16.50;;
14619;SDS011;32125;48.518;9.050;2023-03-01T10:39:14;17.27;;;15.43;;
14619;SDS011;32125;48.518;9.050;2023-03-01T10:44:36;18.73;;;15.90;;
14619;SDS011;32125;48.518;9.050;2023-03-01T10:47:27;18.20;;;15.50;;
14619;SDS011;32125;48.518;9.050;2023-03-01T10:49:56;18.20;;;15.85;;
14619;SDS011;32125;48.518;9.050;2023-03-01T10:52:30;18.10;;;16.15;;
14619;SDS011;32125;48.518;9.050;2023-03-01T10:54:57;19.52;;;15.90;;
14619;SDS011;32125;48.518;9.050;2023-03-01T10:57:43;18.13;;;15.57;;
14619;SDS011;32125;48.518;9.050;2023-03-01T11:02:50;17.88;;;14.95;;
14619;SDS011;32125;48.518;9.050;2023-03-01T11:05:36;16.98;;;15.00;;
14619;SDS011;32125;48.518;9.050;2023-03-01T11:08:04;19.83;;;15.95;;
14619;SDS011;32125;48.518;9.050;2023-03-01T11:10:31;18.35;;;15.80;;
14619;SDS011;32125;48.518;9.050;2023-03-01T11:13:16;17.40;;;15.52;;
14619;SDS011;32125;48.518;9.050;2023-03-01T11:15:43;17.73;;;15.85;;
14619;SDS011;32125;48.518;9.050;2023-03-01T11:18:22;17.63;;;15.82;;
14619;SDS011;32125;48.518;9.050;2023-03-01T11:20:53;19.58;;;16.85;;
14619;SDS011;32125;48.518;9.050;2023-03-01T11:23:20;19.30;;;16.02;;
14619;SDS011;32125;48.518;9.050;2023-03-01T11:25:49;18.55;;;16.52;;
14619;SDS011;32125;48.518;9.050;2023-03-01T11:28:19;18.65;;;16.33;;
14619;SDS011;32125;48.518;9.050;2023-03-01T11:35:55;18.87;;;16.10;;
14619;SDS011;32125;48.518;9.050;2023-03-01T11:38:26;16.92;;;15.13;;
14619;SDS011;32125;48.518;9.050;2023-03-01T11:40:57;17.77;;;15.02;;
14619;SDS011;32125;48.518;9.050;2023-03-01T11:52:12;17.08;;;14.68;;
14619;SDS011;32125;48.518;9.050;2023-03-01T12:00:17;15.63;;;14.00;;
14619;SDS011;32125;48.518;9.050;2023-03-01T12:30:42;16.00;;;14.27;;
14619;SDS011;32125;48.518;9.050;2023-03-01T12:33:17;14.68;;;13.15;;
14619;SDS011;32125;48.518;9.050;2023-03-01T12:38:32;14.27;;;12.77;;
14619;SDS011;32125;48.518;9.050;2023-03-01T12:46:28;15.00;;;13.40;;
14619;SDS011;32125;48.518;9.050;2023-03-01T12:51:34;13.77;;;12.38;;
14619;SDS011;32125;48.518;9.050;2023-03-01T12:54:05;14.40;;;12.45;;
14619;SDS011;32125;48.518;9.050;2023-03-01T12:56:34;14.00;;;12.50;;
14619;SDS011;32125;48.518;9.050;2023-03-01T12:59:12;15.02;;;13.13;;
14619;SDS011;32125;48.518;9.050;2023-03-01T13:07:04;13.48;;;12.07;;
14619;SDS011;32125;48.518;9.050;2023-03-01T13:12:03;14.20;;;12.00;;
14619;SDS011;32125;48.518;9.050;2023-03-01T13:16:57;15.38;;;13.25;;
14619;SDS011;32125;48.518;9.050;2023-03-01T13:19:24;14.85;;;13.23;;
14619;SDS011;32125;48.518;9.050;2023-03-01T13:21:52;14.73;;;13.23;;
14619;SDS011;32125;48.518;9.050;2023-03-01T13:29:45;14.45;;;12.70;;
14619;SDS011;32125;48.518;9.050;2023-03-01T13:32:24;14.35;;;12.82;;
14619;SDS011;32125;48.518;9.050;2023-03-01T13:34:55;14.13;;;12.65;;
14619;SDS011;32125;48.518;9.050;2023-03-01T13:37:23;14.13;;;12.60;;
14619;SDS011;32125;48.518;9.050;2023-03-01T13:39:51;14.75;;;13.15;;
14619;SDS011;32125;48.518;9.050;2023-03-01T13:44:58;15.75;;;14.10;;
14619;SDS011;32125;48.518;9.050;2023-03-01T13:47:25;15.53;;;13.93;;
14619;SDS011;32125;48.518;9.050;2023-03-01T13:49:56;16.07;;;13.50;;
14619;SDS011;32125;48.518;9.050;2023-03-01T13:57:42;15.75;;;14.10;;
14619;SDS011;32125;48.518;9.050;2023-03-01T14:03:00;16.17;;;13.77;;
14619;SDS011;32125;48.518;9.050;2023-03-01T14:05:31;16.15;;;13.77;;
14619;SDS011;32125;48.518;9.050;2023-03-01T14:07:57;15.73;;;13.13;;
14619;SDS011;32125;48.518;9.050;2023-03-01T14:10:26;17.48;;;13.80;;
14619;SDS011;32125;48.518;9.050;2023-03-01T14:21:35;15.15;;;13.43;;
14619;SDS011;32125;48.518;9.050;2023-03-01T14:24:03;15.13;;;13.38;;
14619;SDS011;32125;48.518;9.050;2023-03-01T14:26:29;14.75;;;13.25;;
14619;SDS011;32125;48.518;9.050;2023-03-01T14:29:01;15.43;;;13.80;;
14619;SDS011;32125;48.518;9.050;2023-03-01T14:31:31;17.00;;;14.20;;
14619;SDS011;32125;48.518;9.050;2023-03-01T14:34:00;15.70;;;14.10;;
14619;SDS011;32125;48.518;9.050;2023-03-01T14:36:28;16.20;;;14.30;;
14619;SDS011;32125;48.518;9.050;2023-03-01T14:38:58;16.40;;;13.97;;
14619;SDS011;32125;48.518;9.050;2023-03-01T14:41:29;15.97;;;13.77;;
14619;SDS011;32125;48.518;9.050;2023-03-01T14:46:29;15.53;;;13.53;;
14619;SDS011;32125;48.518;9.050;2023-03-01T14:49:20;16.27;;;13.63;;
14619;SDS011;32125;48.518;9.050;2023-03-01T14:54:24;15.27;;;13.67;;
14619;SDS011;32125;48.518;9.050;2023-03-01T14:57:15;17.20;;;14.67;;
14619;SDS011;32125;48.518;9.050;2023-03-01T14:59:51;15.60;;;13.90;;
14619;SDS011;32125;48.518;9.050;2023-03-01T15:02:38;17.20;;;13.60;;
14619;SDS011;32125;48.518;9.050;2023-03-01T15:05:04;15.10;;;13.33;;
14619;SDS011;32125;48.518;9.050;2023-03-01T15:07:33;16.13;;;13.83;;
14619;SDS011;32125;48.518;9.050;2023-03-01T15:10:04;16.13;;;13.60;;
14619;SDS011;32125;48.518;9.050;2023-03-01T15:12:34;17.30;;;13.93;;
14619;SDS011;32125;48.518;9.050;2023-03-01T15:15:00;16.47;;;13.53;;
14619;SDS011;32125;48.518;9.050;2023-03-01T15:17:49;15.67;;;12.83;;
14619;SDS011;32125;48.518;9.050;2023-03-01T15:20:20;16.50;;;13.40;;
14619;SDS011;32125;48.518;9.050;2023-03-01T15:22:54;17.37;;;13.53;;
14619;SDS011;32125;48.518;9.050;2023-03-01T15:25:22;16.77;;;13.30;;
14619;SDS011;32125;48.518;9.050;2023-03-01T15:27:50;16.27;;;13.67;;
14619;SDS011;32125;48.518;9.050;2023-03-01T15:30:21;16.80;;;13.43;;
14619;SDS011;32125;48.518;9.050;2023-03-01T15:35:50;18.90;;;14.10;;
14619;SDS011;32125;48.518;9.050;2023-03-01T15:41:23;17.77;;;13.97;;
14619;SDS011;32125;48.518;9.050;2023-03-01T15:43:49;19.50;;;14.07;;
14619;SDS011;32125;48.518;9.050;2023-03-01T15:46:16;17.73;;;14.03;;
14619;SDS011;32125;48.518;9.050;2023-03-01T15:48:46;19.70;;;13.83;;
14619;SDS011;32125;48.518;9.050;2023-03-01T15:51:14;17.43;;;14.50;;
14619;SDS011;32125;48.518;9.050;2023-03-01T15:53:49;18.00;;;14.07;;
14619;SDS011;32125;48.518;9.050;2023-03-01T15:56:17;18.47;;;14.23;;
14619;SDS011;32125;48.518;9.050;2023-03-01T15:58:44;18.87;;;14.70;;
14619;SDS011;32125;48.518;9.050;2023-03-01T16:01:11;18.43;;;14.67;;
14619;SDS011;32125;48.518;9.050;2023-03-01T16:03:42;19.20;;;14.60;;
14619;SDS011;32125;48.518;9.050;2023-03-01T16:06:09;19.60;;;15.03;;
14619;SDS011;32125;48.518;9.050;2023-03-01T16:08:39;21.07;;;15.33;;
14619;SDS011;32125;48.518;9.050;2023-03-01T16:11:11;20.90;;;15.07;;
14619;SDS011;32125;48.518;9.050;2023-03-01T16:13:43;19.00;;;14.60;;
14619;SDS011;32125;48.518;9.050;2023-03-01T16:16:12;19.50;;;15.00;;
14619;SDS011;32125;48.518;9.050;2023-03-01T16:18:41;19.93;;;14.60;;
14619;SDS011;32125;48.518;9.050;2023-03-01T16:21:20;19.57;;;14.67;;
14619;SDS011;32125;48.518;9.050;2023-03-01T16:23:51;18.17;;;13.97;;
14619;SDS011;32125;48.518;9.050;2023-03-01T16:26:21;19.40;;;14.53;;
14619;SDS011;32125;48.518;9.050;2023-03-01T16:28:47;22.20;;;14.70;;
14619;SDS011;32125;48.518;9.050;2023-03-01T16:31:17;19.97;;;14.67;;
14619;SDS011;32125;48.518;9.050;2023-03-01T16:33:48;20.07;;;14.17;;
14619;SDS011;32125;48.518;9.050;2023-03-01T16:36:18;19.67;;;13.93;;
14619;SDS011;32125;48.518;9.050;2023-03-01T16:38:45;22.30;;;14.80;;
14619;SDS011;32125;48.518;9.050;2023-03-01T16:41:15;20.13;;;14.33;;
14619;SDS011;32125;48.518;9.050;2023-03-01T16:43:43;18.73;;;14.07;;
14619;SDS011;32125;48.518;9.050;2023-03-01T16:46:16;16.73;;;13.23;;
14619;SDS011;32125;48.518;9.050;2023-03-01T16:48:43;20.87;;;14.60;;